»·PEaware :: AAL2433 KLAX-KDFW

AAL2433 :: KLAX-KDFW

FLIGHT INFORMATION

Flight Status: Arrived
Operator:
American Airlines
More flights by this operator :: More flights under this callsign
Pilot: Marwan Toby (4597)
Aircraft: BOEING 737-800
(B738)
More flights by this aircraft type
Origin: KLAX Los Angeles Intl
United States
Destination: KDFW Dallas-Ft Worth Intl
United States
More flights between these airports :: More routes between these airports
Route: +HOLTZ9 TRM J169 BLH KA21O ONM TXO UKW3 TXO UKW3
File this flight plan on PilotEdge
Remarks:
Altitude:
(Current/Filed)
36,000ft
Speed:
(Current/Filed)
450kts
Departed: 06-Feb-15 10:34 AM
Arrived: 06-Feb-15 01:14 PM
Distance/Time
Traveled:
1070nm/2:39
Distance/Time
To Go:
Arrived

Flight Plot

Page will automatically refresh every two minutes.

Flight plan parsing failed; only flown route is shown


Map Options




Map Legend


Flown Route
Filed Route
Departure Airport
Arrival Airport
Navaid (VOR, NDB)
Fix

Horizontal Profiles

Position Reports

Time Latitude Longitude Heading Altitude Ground
Speed
06-Feb-15 09:43 33.941303 -118.405028 86 133ft 0kts
06-Feb-15 09:44 33.941303 -118.405028 86 133ft 0kts
06-Feb-15 09:45 33.941303 -118.405028 86 133ft 0kts
06-Feb-15 09:46 33.941303 -118.405028 86 133ft 0kts
06-Feb-15 09:47 33.941303 -118.405028 86 133ft 0kts
06-Feb-15 09:48 33.941303 -118.405028 86 133ft 0kts
06-Feb-15 09:49 33.941303 -118.405028 86 133ft 0kts
06-Feb-15 09:50 33.941303 -118.405028 86 133ft 0kts
06-Feb-15 09:51 33.941303 -118.405028 86 133ft 0kts
06-Feb-15 09:52 33.941303 -118.405028 86 133ft 0kts
06-Feb-15 09:53 33.941303 -118.405028 86 133ft 0kts
06-Feb-15 09:54 33.941303 -118.405028 86 133ft 0kts
06-Feb-15 09:55 33.941303 -118.405028 86 133ft 0kts
06-Feb-15 09:56 33.941303 -118.405028 86 133ft 0kts
06-Feb-15 09:57 33.941303 -118.405028 86 133ft 0kts
06-Feb-15 09:58 33.941303 -118.405028 86 133ft 0kts
06-Feb-15 09:59 33.941303 -118.405028 86 133ft 0kts
06-Feb-15 10:00 33.941303 -118.405028 86 133ft 0kts
06-Feb-15 10:01 33.941303 -118.405028 86 133ft 0kts
06-Feb-15 10:02 33.941303 -118.405028 86 133ft 0kts
06-Feb-15 10:03 33.941303 -118.405028 86 133ft 0kts
06-Feb-15 10:04 33.941303 -118.405028 86 133ft 0kts
06-Feb-15 10:05 33.941303 -118.405028 86 133ft 0kts
06-Feb-15 10:06 33.941303 -118.405028 86 133ft 0kts
06-Feb-15 10:07 33.941303 -118.405028 86 133ft 0kts
06-Feb-15 10:08 33.941294 -118.405208 86 133ft 2kts
06-Feb-15 10:09 33.941423 -118.405900 143 133ft 0kts
06-Feb-15 10:10 33.941422 -118.405899 143 133ft 0kts
06-Feb-15 10:11 33.941420 -118.405897 143 133ft 0kts
06-Feb-15 10:12 33.941417 -118.405895 143 133ft 0kts
06-Feb-15 10:13 33.941415 -118.405893 143 133ft 0kts
06-Feb-15 10:14 33.941412 -118.405890 143 133ft 0kts
06-Feb-15 10:15 33.941270 -118.405786 152 133ft 3kts
06-Feb-15 10:16 33.939533 -118.405462 170 133ft 9kts
06-Feb-15 10:17 33.938476 -118.403288 81 133ft 10kts
06-Feb-15 10:18 33.938895 -118.399264 83 133ft 13kts
06-Feb-15 10:19 33.939368 -118.394663 85 133ft 14kts
06-Feb-15 10:20 33.939828 -118.389887 84 133ft 14kts
06-Feb-15 10:21 33.940338 -118.384828 82 133ft 15kts
06-Feb-15 10:22 33.940708 -118.380656 115 133ft 0kts
06-Feb-15 10:23 33.940707 -118.380652 115 133ft 0kts
06-Feb-15 10:24 33.940706 -118.380649 115 133ft 0kts
06-Feb-15 10:25 33.940705 -118.380646 115 133ft 0kts
06-Feb-15 10:26 33.940703 -118.380642 115 133ft 0kts
06-Feb-15 10:27 33.939872 -118.380373 238 133ft 11kts
06-Feb-15 10:28 33.939803 -118.380642 261 133ft 0kts
06-Feb-15 10:29 33.937955 -118.397983 262 134ft 152kts
06-Feb-15 10:30 33.927954 -118.456835 238 2273ft 204kts
06-Feb-15 10:31 33.886285 -118.519158 226 4320ft 262kts
06-Feb-15 10:32 33.826333 -118.558493 167 7639ft 256kts
06-Feb-15 10:33 33.756420 -118.536839 164 10854ft 262kts
06-Feb-15 10:34 33.695153 -118.495314 117 12976ft 272kts
06-Feb-15 10:35 33.665216 -118.412293 113 12998ft 271kts
06-Feb-15 10:36 33.644807 -118.321204 97 13675ft 312kts
06-Feb-15 10:37 33.644286 -118.207932 94 15364ft 353kts
06-Feb-15 10:38 33.644220 -118.087389 95 16985ft 363kts
06-Feb-15 10:39 33.643917 -117.965328 95 18611ft 369kts
06-Feb-15 10:40 33.643855 -117.839653 95 20605ft 382kts
06-Feb-15 10:41 33.643589 -117.709987 96 22329ft 395kts
06-Feb-15 10:42 33.643044 -117.572558 96 23390ft 418kts
06-Feb-15 10:43 33.642004 -117.452528 92 23805ft 447kts
06-Feb-15 10:44 33.641309 -117.299836 92 24848ft 459kts
06-Feb-15 10:45 33.640189 -117.145145 92 25995ft 467kts
06-Feb-15 10:46 33.638805 -116.989178 92 26184ft 463kts
06-Feb-15 10:47 33.637220 -116.834115 92 26203ft 464kts
06-Feb-15 10:48 33.635436 -116.678846 92 26213ft 465kts
06-Feb-15 10:49 33.633540 -116.521908 91 26193ft 475kts
06-Feb-15 10:50 33.631420 -116.363845 92 26182ft 474kts
06-Feb-15 10:51 33.628834 -116.204744 92 26179ft 475kts
06-Feb-15 10:52 33.625989 -116.046513 92 27073ft 473kts
06-Feb-15 10:53 33.622800 -115.888648 92 28077ft 471kts
06-Feb-15 10:54 33.619455 -115.731810 92 29158ft 469kts
06-Feb-15 10:55 33.616444 -115.574286 92 30193ft 470kts
06-Feb-15 10:56 33.612982 -115.417518 92 31383ft 467kts
06-Feb-15 10:57 33.609288 -115.261841 92 32535ft 465kts
06-Feb-15 10:58 33.605574 -115.107419 92 33666ft 462kts
06-Feb-15 10:59 33.601536 -114.952758 92 34727ft 460kts
06-Feb-15 11:00 33.597226 -114.801611 92 36022ft 446kts
06-Feb-15 11:01 33.609374 -114.651963 81 36206ft 450kts
06-Feb-15 11:02 33.628072 -114.502754 81 36201ft 453kts
06-Feb-15 11:03 33.646460 -114.352774 81 36203ft 453kts
06-Feb-15 11:04 33.665223 -114.202874 81 36205ft 453kts
06-Feb-15 11:05 33.683630 -114.052332 81 36203ft 453kts
06-Feb-15 11:06 33.701633 -113.902808 81 36210ft 453kts
06-Feb-15 11:07 33.719521 -113.752367 81 36218ft 454kts
06-Feb-15 11:08 33.737218 -113.601889 81 36228ft 454kts
06-Feb-15 11:09 33.754657 -113.451958 81 36234ft 453kts
06-Feb-15 11:10 33.771993 -113.301260 81 36237ft 453kts
06-Feb-15 11:11 33.789086 -113.151027 81 36239ft 453kts
06-Feb-15 11:12 33.805996 -113.000732 81 36238ft 452kts
06-Feb-15 11:13 33.822699 -112.850579 81 36238ft 454kts
06-Feb-15 11:14 33.839290 -112.699771 81 36242ft 454kts
06-Feb-15 11:15 33.855662 -112.549231 81 36263ft 452kts
06-Feb-15 11:16 33.871736 -112.399693 81 36320ft 447kts
06-Feb-15 11:17 33.887525 -112.251099 82 36349ft 447kts
06-Feb-15 11:18 33.903220 -112.101623 82 36333ft 446kts
06-Feb-15 11:19 33.918681 -111.952624 82 36383ft 449kts
06-Feb-15 11:20 33.933932 -111.803858 82 36414ft 447kts
06-Feb-15 11:21 33.949039 -111.654698 82 36419ft 448kts
06-Feb-15 11:22 33.963968 -111.505466 82 36419ft 448kts
06-Feb-15 11:23 33.978667 -111.356690 82 36419ft 448kts
06-Feb-15 11:24 33.993232 -111.207395 82 36419ft 448kts
06-Feb-15 11:25 34.007666 -111.057512 82 36419ft 451kts
06-Feb-15 11:26 34.021959 -110.907181 82 36422ft 450kts
06-Feb-15 11:27 34.036095 -110.756509 82 36431ft 450kts
06-Feb-15 11:28 34.050003 -110.606275 82 36436ft 449kts
06-Feb-15 11:29 34.063662 -110.456718 82 36443ft 449kts
06-Feb-15 11:30 34.077241 -110.305978 82 36450ft 449kts
06-Feb-15 11:31 34.090503 -110.156626 82 36453ft 448kts
06-Feb-15 11:32 34.103634 -110.006770 82 36455ft 448kts
06-Feb-15 11:33 34.116576 -109.856925 82 36453ft 448kts
06-Feb-15 11:34 34.129337 -109.707010 82 36453ft 448kts
06-Feb-15 11:35 34.141925 -109.556940 82 36440ft 448kts
06-Feb-15 11:36 34.152285 -109.431726 82 36436ft 449kts
06-Feb-15 11:37 34.164590 -109.280943 83 36428ft 453kts
06-Feb-15 11:38 34.176777 -109.129242 83 36428ft 452kts
06-Feb-15 11:39 34.188771 -108.977597 83 36427ft 453kts
06-Feb-15 11:40 34.200580 -108.825890 83 36432ft 452kts
06-Feb-15 11:41 34.212155 -108.674763 83 36437ft 452kts
06-Feb-15 11:42 34.223593 -108.522964 83 36437ft 452kts
06-Feb-15 11:43 34.234876 -108.370768 84 36434ft 455kts
06-Feb-15 11:44 34.245988 -108.218140 84 36433ft 455kts
06-Feb-15 11:45 34.256914 -108.065467 84 36435ft 455kts
06-Feb-15 11:46 34.267664 -107.912583 84 36434ft 455kts
06-Feb-15 11:47 34.278221 -107.759731 84 36433ft 456kts
06-Feb-15 11:48 34.288593 -107.606764 84 36441ft 455kts
06-Feb-15 11:49 34.298751 -107.454141 84 36430ft 457kts
06-Feb-15 11:50 34.308764 -107.300805 84 36427ft 457kts
06-Feb-15 11:51 34.318846 -107.146603 84 36423ft 457kts
06-Feb-15 11:52 34.328463 -106.992824 85 36421ft 457kts
06-Feb-15 11:53 34.337750 -106.839609 85 36421ft 457kts
06-Feb-15 11:54 34.346193 -106.685687 85 36422ft 457kts
06-Feb-15 11:55 34.354210 -106.531992 86 36419ft 454kts
06-Feb-15 11:56 34.362124 -106.378524 85 36422ft 454kts
06-Feb-15 11:57 34.370244 -106.226254 86 36428ft 453kts
06-Feb-15 11:58 34.377980 -106.073744 86 36436ft 452kts
06-Feb-15 11:59 34.385469 -105.920962 86 36438ft 452kts
06-Feb-15 12:00 34.392684 -105.769437 86 36437ft 451kts
06-Feb-15 12:01 34.399748 -105.616961 86 36429ft 456kts
06-Feb-15 12:02 34.406673 -105.463245 86 36422ft 455kts
06-Feb-15 12:03 34.413421 -105.309133 86 36420ft 456kts
06-Feb-15 12:04 34.419956 -105.155483 86 36415ft 456kts
06-Feb-15 12:05 34.426278 -105.002312 86 36407ft 456kts
06-Feb-15 12:06 34.432448 -104.848126 86 36389ft 457kts
06-Feb-15 12:07 34.438437 -104.693637 87 36357ft 461kts
06-Feb-15 12:08 34.444260 -104.538293 87 36329ft 460kts
06-Feb-15 12:09 34.449897 -104.382663 87 36282ft 462kts
06-Feb-15 12:10 34.455342 -104.226837 87 36274ft 462kts
06-Feb-15 12:11 34.460574 -104.071506 87 36268ft 462kts
06-Feb-15 12:12 34.465641 -103.915171 87 36275ft 462kts
06-Feb-15 12:13 34.470490 -103.759446 87 36295ft 467kts
06-Feb-15 12:14 34.475227 -103.600746 87 36297ft 468kts
06-Feb-15 12:15 34.479740 -103.442782 87 36278ft 468kts
06-Feb-15 12:16 34.484039 -103.285251 88 36267ft 468kts
06-Feb-15 12:17 34.488392 -103.127193 88 36260ft 468kts
06-Feb-15 12:18 34.492182 -102.969089 88 36247ft 468kts
06-Feb-15 12:19 34.492245 -102.810724 95 36253ft 472kts
06-Feb-15 12:20 34.475844 -102.652315 97 36249ft 472kts
06-Feb-15 12:21 34.459097 -102.494572 97 36232ft 472kts
06-Feb-15 12:22 34.442497 -102.335710 97 36217ft 473kts
06-Feb-15 12:23 34.425838 -102.177779 97 36211ft 473kts
06-Feb-15 12:24 34.408724 -102.018769 97 36204ft 473kts
06-Feb-15 12:25 34.391357 -101.859690 97 36198ft 479kts
06-Feb-15 12:26 34.373689 -101.699882 98 36198ft 478kts
06-Feb-15 12:27 34.355816 -101.540166 98 36198ft 478kts
06-Feb-15 12:28 34.340907 -101.406961 98 36197ft 478kts
06-Feb-15 12:29 34.319588 -101.220708 98 36195ft 478kts
06-Feb-15 12:30 34.300908 -101.060742 98 36194ft 483kts
06-Feb-15 12:31 34.285022 -100.926182 98 36192ft 483kts
06-Feb-15 12:32 34.265816 -100.765506 98 36193ft 484kts
06-Feb-15 12:33 34.246600 -100.603448 98 36194ft 484kts
06-Feb-15 12:34 34.227355 -100.442460 98 36194ft 484kts
06-Feb-15 12:35 34.207416 -100.281041 99 36195ft 484kts
06-Feb-15 12:36 34.169794 -100.123687 108 36192ft 487kts
06-Feb-15 12:37 34.128333 -99.968422 108 36196ft 486kts
06-Feb-15 12:38 34.086882 -99.812101 108 36203ft 487kts
06-Feb-15 12:39 34.045402 -99.656240 108 36209ft 487kts
06-Feb-15 12:40 34.003554 -99.501285 108 35334ft 483kts
06-Feb-15 12:41 33.961930 -99.348096 108 32910ft 476kts
06-Feb-15 12:42 33.921034 -99.198537 108 30952ft 462kts
06-Feb-15 12:43 33.881456 -99.052613 108 29087ft 450kts
06-Feb-15 12:44 33.842509 -98.910993 109 27248ft 442kts
06-Feb-15 12:45 33.803726 -98.771109 109 25421ft 435kts
06-Feb-15 12:46 33.765737 -98.633755 109 23595ft 429kts
06-Feb-15 12:47 33.727854 -98.498489 109 21773ft 423kts
06-Feb-15 12:48 33.691169 -98.368087 109 20722ft 400kts
06-Feb-15 12:49 33.655457 -98.241829 109 19057ft 397kts
06-Feb-15 12:50 33.620291 -98.116782 110 17361ft 385kts
06-Feb-15 12:51 33.586684 -97.998551 110 15926ft 367kts
06-Feb-15 12:52 33.553893 -97.884083 111 14760ft 358kts
06-Feb-15 12:53 33.506013 -97.783913 137 13599ft 341kts
06-Feb-15 12:54 33.438790 -97.706018 138 12591ft 329kts
06-Feb-15 12:55 33.376516 -97.632997 138 12251ft 294kts
06-Feb-15 12:56 33.320182 -97.567008 138 11770ft 273kts
06-Feb-15 12:57 33.264653 -97.501530 138 10722ft 281kts
06-Feb-15 12:58 33.218321 -97.426378 123 9967ft 281kts
06-Feb-15 12:59 33.180279 -97.346445 122 8939ft 275kts
06-Feb-15 13:00 33.145586 -97.273339 123 8280ft 237kts
06-Feb-15 13:01 33.116021 -97.211210 123 7410ft 199kts
06-Feb-15 13:02 33.090230 -97.157094 123 6253ft 171kts
06-Feb-15 13:03 33.067189 -97.108792 123 4795ft 156kts
06-Feb-15 13:04 33.045599 -97.060167 146 3088ft 153kts
06-Feb-15 13:05 33.006367 -97.054277 180 2479ft 138kts
06-Feb-15 13:06 32.968724 -97.054369 180 1764ft 133kts
06-Feb-15 13:07 32.932050 -97.054554 180 1064ft 130kts
06-Feb-15 13:08 32.900082 -97.054716 180 615ft 57kts
06-Feb-15 13:09 32.894082 -97.052601 114 615ft 16kts
06-Feb-15 13:10 32.894716 -97.047626 0 615ft 12kts
06-Feb-15 13:11 32.898151 -97.046760 95 615ft 8kts
06-Feb-15 13:12 32.898039 -97.046209 100 615ft 0kts
06-Feb-15 13:13 32.898038 -97.046204 100 615ft 0kts
06-Feb-15 13:14 32.898038 -97.046204 100 615ft 0kts
06-Feb-15 13:15 32.898038 -97.046204 100 615ft 0kts
06-Feb-15 13:16 32.898038 -97.046204 100 615ft 0kts
06-Feb-15 13:17 32.898038 -97.046204 100 615ft 0kts
06-Feb-15 13:18 32.898038 -97.046204 100 615ft 0kts

Navigation Log

Ident Type
Flight plan parsing failed, navigation log unavailable